Aberdare, United Kingdom
Current Conditions -  °F | °C
As of 10:50 PM on Sunday 23 Nov 2014 (Local Time) from EGDX Reporting Station
Clear Clear  
Wind Chill:   Ceiling: Unl
Heat Index:   Visibility: 6mi
Dew Point:   Wind: 2mph
Humidity: 87%   Direction: 340°NNW
Pressure: 30.21"   Gusts: NA
Location:  51.71°N, 3.45°W
Report Text: EGDX 232250Z AUTO 34002KT 9999 NCD 03/01 Q1023
Loading
Personal Weather Stations






























Interactive Weather Map New forecast layout! Learn more

10-Day Weather Forecast

Advertisements
Track Severe Weather on mobile